Time;durP1;ratioP1;P1;durP2;ratioP2;P2;SDS_P1;SDS_P2;PMS_P1;PMS_P2;Temp;Humidity;BMP_temperature;BMP_pressure;BME280_temperature;BME280_humidity;BME280_pressure;Samples;Min_cycle;Max_cycle;Signal;HPM_P1;HPM_P2
2021/01/24 00:02:11;;;;;;;27.00;15.40;;;;;;;;;;4764942;29;178590;-71
2021/01/24 00:04:38;;;;;;;25.37;14.97;;;;;;;;;;4771772;29;179488;-71
2021/01/24 00:07:05;;;;;;;22.43;15.03;;;;;;;;;;4772270;29;178051;-71
2021/01/24 00:09:32;;;;;;;20.07;13.67;;;;;;;;;;4771894;28;178773;-71
2021/01/24 00:11:59;;;;;;;20.03;14.83;;;;;;;;;;4771173;29;178292;-71
2021/01/24 00:14:25;;;;;;;23.83;13.93;;;;;;;;;;4772147;29;180053;-71
2021/01/24 00:16:52;;;;;;;23.43;15.80;;;;;;;;;;4769394;28;178698;-71
2021/01/24 00:19:19;;;;;;;27.33;15.97;;;;;;;;;;4755970;29;178060;-71
2021/01/24 00:21:46;;;;;;;29.27;15.23;;;;;;;;;;4770121;29;180958;-71
2021/01/24 00:24:12;;;;;;;22.77;13.23;;;;;;;;;;4769775;29;183070;-71
2021/01/24 00:26:39;;;;;;;23.83;14.90;;;;;;;;;;4767173;29;182590;-71
2021/01/24 00:29:06;;;;;;;24.30;14.80;;;;;;;;;;4770191;28;179183;-71
2021/01/24 00:31:32;;;;;;;23.87;14.97;;;;;;;;;;4764803;29;178287;-71
2021/01/24 00:33:59;;;;;;;22.77;14.23;;;;;;;;;;4773482;29;178928;-71
2021/01/24 00:36:26;;;;;;;20.23;13.20;;;;;;;;;;4740350;29;179759;-71
2021/01/24 00:38:53;;;;;;;18.97;13.73;;;;;;;;;;4757505;29;177980;-71
2021/01/24 00:41:19;;;;;;;21.97;14.27;;;;;;;;;;4758635;29;177031;-71
2021/01/24 00:43:46;;;;;;;21.70;13.27;;;;;;;;;;4757663;29;179281;-71
2021/01/24 00:46:13;;;;;;;18.70;13.73;;;;;;;;;;4770148;29;178412;-71
2021/01/24 00:48:40;;;;;;;19.90;13.57;;;;;;;;;;4774099;29;181567;-71
2021/01/24 00:51:06;;;;;;;19.03;13.70;;;;;;;;;;4758516;29;178186;-71
2021/01/24 00:53:35;;;;;;;18.97;12.37;;;;;;;;;;4773689;29;179879;-71
2021/01/24 00:56:02;;;;;;;17.53;12.30;;;;;;;;;;4756836;29;179684;-71
2021/01/24 00:58:28;;;;;;;17.03;12.60;;;;;;;;;;4773391;28;178227;-71
2021/01/24 01:00:55;;;;;;;20.73;13.57;;;;;;;;;;4769915;29;179775;-71
2021/01/24 01:03:22;;;;;;;20.03;13.10;;;;;;;;;;4774690;29;180021;-71
2021/01/24 01:05:49;;;;;;;21.73;14.47;;;;;;;;;;4774055;29;178810;-71
2021/01/24 01:08:15;;;;;;;19.53;13.50;;;;;;;;;;4773604;29;178572;-71
2021/01/24 01:10:42;;;;;;;18.70;13.13;;;;;;;;;;4756711;29;178056;-71
2021/01/24 01:13:09;;;;;;;17.07;13.03;;;;;;;;;;4772236;29;182408;-71
2021/01/24 01:15:35;;;;;;;17.17;12.87;;;;;;;;;;4767740;29;180733;-71
2021/01/24 01:18:03;;;;;;;19.47;13.60;;;;;;;;;;4774855;29;178012;-71
2021/01/24 01:20:29;;;;;;;20.40;13.77;;;;;;;;;;4770498;29;178008;-71
2021/01/24 01:22:56;;;;;;;19.47;13.60;;;;;;;;;;4773881;29;179316;-71
2021/01/24 01:25:24;;;;;;;19.00;12.93;;;;;;;;;;4768143;29;178662;-71
2021/01/24 01:27:50;;;;;;;18.20;12.37;;;;;;;;;;4765592;29;180375;-71
2021/01/24 01:30:17;;;;;;;18.17;11.30;;;;;;;;;;4774118;29;178434;-71
2021/01/24 01:32:44;;;;;;;18.67;12.87;;;;;;;;;;4776795;29;180458;-71
2021/01/24 01:35:11;;;;;;;16.30;11.20;;;;;;;;;;4776725;28;179609;-71
2021/01/24 01:37:38;;;;;;;16.87;12.80;;;;;;;;;;4771430;29;181286;-71
2021/01/24 01:40:05;;;;;;;22.93;14.80;;;;;;;;;;4774170;29;178440;-71
2021/01/24 01:42:32;;;;;;;20.80;14.20;;;;;;;;;;4777140;29;179271;-71
2021/01/24 01:44:59;;;;;;;18.00;12.97;;;;;;;;;;4775990;29;178504;-71
2021/01/24 01:47:26;;;;;;;19.73;13.10;;;;;;;;;;4776975;29;178428;-70
2021/01/24 01:49:54;;;;;;;20.67;14.90;;;;;;;;;;4774448;28;178091;-70
2021/01/24 01:52:23;;;;;;;19.03;14.37;;;;;;;;;;4775863;29;179310;-71
2021/01/24 01:54:51;;;;;;;21.07;14.47;;;;;;;;;;4777458;29;178156;-71
2021/01/24 01:57:17;;;;;;;19.27;14.00;;;;;;;;;;4777136;29;178540;-71
2021/01/24 01:59:44;;;;;;;20.27;13.97;;;;;;;;;;4776181;29;178029;-71
2021/01/24 02:02:30;;;;;;;21.40;13.97;;;;;;;;;;4767027;29;183605;-71
2021/01/24 02:05:23;;;;;;;18.83;13.27;;;;;;;;;;4776627;29;181688;-71
2021/01/24 02:07:54;;;;;;;20.93;14.67;;;;;;;;;;4775621;29;178004;-71
2021/01/24 02:10:39;;;;;;;20.70;13.73;;;;;;;;;;4775925;29;179543;-71
2021/01/24 02:13:14;;;;;;;17.93;13.03;;;;;;;;;;4776833;29;179807;-71
2021/01/24 02:15:42;;;;;;;19.30;13.93;;;;;;;;;;4774747;28;178444;-71
2021/01/24 02:18:10;;;;;;;22.50;15.23;;;;;;;;;;4776896;29;180150;-71
2021/01/24 02:20:42;;;;;;;21.70;15.23;;;;;;;;;;4776037;29;176563;-71
2021/01/24 02:23:10;;;;;;;24.43;15.10;;;;;;;;;;4767648;29;179199;-70
2021/01/24 02:25:43;;;;;;;24.00;15.97;;;;;;;;;;4776098;29;178752;-70
2021/01/24 02:28:29;;;;;;;23.90;16.70;;;;;;;;;;4775480;29;181342;-70
2021/01/24 02:30:56;;;;;;;25.40;16.90;;;;;;;;;;4774487;28;178425;-71
2021/01/24 02:33:24;;;;;;;28.53;17.20;;;;;;;;;;4775732;29;179360;-71
2021/01/24 02:35:52;;;;;;;22.13;14.97;;;;;;;;;;4776223;29;178931;-71
2021/01/24 02:38:19;;;;;;;20.93;15.53;;;;;;;;;;4774423;29;177963;-71
2021/01/24 02:40:47;;;;;;;33.80;18.23;;;;;;;;;;4775828;29;179093;-71
2021/01/24 02:43:15;;;;;;;29.30;18.03;;;;;;;;;;4775838;29;179212;-71
2021/01/24 02:45:43;;;;;;;24.17;16.10;;;;;;;;;;4775294;28;178304;-71
2021/01/24 02:48:10;;;;;;;26.57;16.30;;;;;;;;;;4776236;29;178200;-71
2021/01/24 02:50:37;;;;;;;29.17;17.97;;;;;;;;;;4776351;29;178716;-70
2021/01/24 02:53:04;;;;;;;27.33;17.20;;;;;;;;;;4773926;28;183825;-70
2021/01/24 02:55:31;;;;;;;22.37;14.87;;;;;;;;;;4769507;29;182091;-70
2021/01/24 02:57:58;;;;;;;26.77;16.63;;;;;;;;;;4776540;29;178087;-70
2021/01/24 03:00:25;;;;;;;26.73;16.33;;;;;;;;;;4774814;28;178171;-70
2021/01/24 03:02:52;;;;;;;25.63;16.67;;;;;;;;;;4775375;29;179313;-71
2021/01/24 03:05:19;;;;;;;24.77;16.40;;;;;;;;;;4771714;28;178384;-70
2021/01/24 03:07:47;;;;;;;29.30;17.40;;;;;;;;;;4775493;29;180270;-71
2021/01/24 03:10:14;;;;;;;25.47;16.50;;;;;;;;;;4772051;29;176554;-70
2021/01/24 03:12:46;;;;;;;23.37;16.70;;;;;;;;;;4771924;29;180164;-70
2021/01/24 03:15:14;;;;;;;25.90;17.00;;;;;;;;;;4774313;29;178321;-70
2021/01/24 03:17:41;;;;;;;21.83;15.70;;;;;;;;;;4773891;29;181385;-70
2021/01/24 03:20:08;;;;;;;23.23;15.87;;;;;;;;;;4775051;29;180264;-70
2021/01/24 03:22:36;;;;;;;25.00;17.30;;;;;;;;;;4772939;29;178253;-70
2021/01/24 03:25:03;;;;;;;23.93;16.07;;;;;;;;;;4774222;29;177870;-70
2021/01/24 03:27:31;;;;;;;23.37;15.87;;;;;;;;;;4775418;29;178757;-70
2021/01/24 03:29:59;;;;;;;24.70;15.97;;;;;;;;;;4775086;29;179303;-71
2021/01/24 03:32:26;;;;;;;23.63;16.17;;;;;;;;;;4773279;29;179031;-70
2021/01/24 03:34:53;;;;;;;25.07;16.60;;;;;;;;;;4775628;29;178422;-70
2021/01/24 03:37:20;;;;;;;26.90;17.23;;;;;;;;;;4771960;28;178015;-70
2021/01/24 03:39:47;;;;;;;25.53;15.27;;;;;;;;;;4769887;29;178012;-70
2021/01/24 03:42:14;;;;;;;26.07;16.23;;;;;;;;;;4772576;29;182061;-71
2021/01/24 03:44:40;;;;;;;23.03;15.90;;;;;;;;;;4775719;29;180496;-70
2021/01/24 03:47:07;;;;;;;26.17;16.20;;;;;;;;;;4774394;29;178841;-70
2021/01/24 03:49:34;;;;;;;30.30;17.37;;;;;;;;;;4763210;29;177896;-70
2021/01/24 03:52:01;;;;;;;26.80;16.70;;;;;;;;;;4774312;29;180215;-70
2021/01/24 03:54:27;;;;;;;20.60;14.73;;;;;;;;;;4773935;29;180133;-70
2021/01/24 03:56:54;;;;;;;21.77;15.43;;;;;;;;;;4762693;29;178040;-70
2021/01/24 03:59:21;;;;;;;20.87;14.87;;;;;;;;;;4775676;29;177587;-70
2021/01/24 04:01:47;;;;;;;21.40;16.30;;;;;;;;;;4770127;29;179953;-70
2021/01/24 04:04:14;;;;;;;27.07;16.13;;;;;;;;;;4775290;29;178342;-70
2021/01/24 04:06:41;;;;;;;26.27;17.37;;;;;;;;;;4773305;28;182265;-70
2021/01/24 04:09:08;;;;;;;31.53;16.73;;;;;;;;;;4774954;29;178208;-70
2021/01/24 04:11:34;;;;;;;31.60;16.70;;;;;;;;;;4774246;29;178758;-70
2021/01/24 04:14:01;;;;;;;36.90;19.03;;;;;;;;;;4758239;29;182365;-70
2021/01/24 04:16:28;;;;;;;34.27;17.27;;;;;;;;;;4767872;29;179393;-70
2021/01/24 04:18:54;;;;;;;28.37;17.37;;;;;;;;;;4775031;29;178057;-70
2021/01/24 04:21:21;;;;;;;38.27;17.70;;;;;;;;;;4773755;29;179345;-70
2021/01/24 04:23:48;;;;;;;26.67;16.13;;;;;;;;;;4774899;29;181162;-70
2021/01/24 04:26:15;;;;;;;28.93;17.40;;;;;;;;;;4775585;29;177959;-70
2021/01/24 04:28:41;;;;;;;27.00;15.27;;;;;;;;;;4773643;29;178347;-70
2021/01/24 04:31:08;;;;;;;21.80;14.73;;;;;;;;;;4769369;29;183571;-70
2021/01/24 04:33:35;;;;;;;29.17;16.17;;;;;;;;;;4774319;29;181524;-71
2021/01/24 04:36:02;;;;;;;22.23;14.43;;;;;;;;;;4774183;29;178017;-70
2021/01/24 04:38:28;;;;;;;23.20;15.17;;;;;;;;;;4764599;29;178379;-71
2021/01/24 04:40:55;;;;;;;22.00;14.97;;;;;;;;;;4762019;29;179288;-70
2021/01/24 04:43:22;;;;;;;27.80;15.67;;;;;;;;;;4773424;29;179962;-71
2021/01/24 04:45:49;;;;;;;25.63;16.13;;;;;;;;;;4773318;29;178208;-70
2021/01/24 04:48:16;;;;;;;40.10;15.40;;;;;;;;;;4776774;29;176487;-70
2021/01/24 04:50:43;;;;;;;22.13;14.60;;;;;;;;;;4776626;29;179817;-70
2021/01/24 04:53:10;;;;;;;30.47;15.23;;;;;;;;;;4778436;29;177871;-70
2021/01/24 04:55:37;;;;;;;20.17;13.97;;;;;;;;;;4775627;29;181325;-70
2021/01/24 04:58:05;;;;;;;21.50;14.30;;;;;;;;;;4760322;29;178080;-70
2021/01/24 05:00:31;;;;;;;30.00;16.20;;;;;;;;;;4760599;29;179823;-70
2021/01/24 05:02:58;;;;;;;27.87;15.50;;;;;;;;;;4778348;29;178528;-70
2021/01/24 05:05:25;;;;;;;23.47;14.30;;;;;;;;;;4778742;29;178444;-70
2021/01/24 05:07:58;;;;;;;22.33;13.97;;;;;;;;;;4766374;29;178132;-70
2021/01/24 05:10:29;;;;;;;24.23;14.80;;;;;;;;;;4776619;29;179378;-71
2021/01/24 05:12:57;;;;;;;25.13;14.20;;;;;;;;;;4778411;29;179605;-70
2021/01/24 05:15:24;;;;;;;27.80;15.17;;;;;;;;;;4776788;28;179201;-70
2021/01/24 05:17:51;;;;;;;37.37;15.93;;;;;;;;;;4775880;28;178487;-70
2021/01/24 05:20:22;;;;;;;30.83;16.87;;;;;;;;;;4774988;29;183888;-70
2021/01/24 05:22:49;;;;;;;19.23;13.20;;;;;;;;;;4775469;29;181002;-70
2021/01/24 05:25:23;;;;;;;19.87;13.53;;;;;;;;;;4777150;29;180378;-70
2021/01/24 05:27:50;;;;;;;20.90;14.37;;;;;;;;;;4775426;29;178404;-70
2021/01/24 05:30:20;;;;;;;17.77;13.03;;;;;;;;;;4776183;29;179273;-70
2021/01/24 05:32:47;;;;;;;22.40;14.43;;;;;;;;;;4773312;29;181757;-70
2021/01/24 05:35:14;;;;;;;22.33;14.03;;;;;;;;;;4776573;29;177990;-70
2021/01/24 05:37:44;;;;;;;23.53;14.90;;;;;;;;;;4776173;29;178121;-70
2021/01/24 05:40:11;;;;;;;18.33;12.70;;;;;;;;;;4760413;29;180635;-69
2021/01/24 05:42:38;;;;;;;26.27;14.47;;;;;;;;;;4774995;29;178868;-69
2021/01/24 05:45:09;;;;;;;20.43;13.70;;;;;;;;;;4775295;29;181274;-69
2021/01/24 05:47:36;;;;;;;24.43;14.40;;;;;;;;;;4776696;29;178818;-69
2021/01/24 05:50:10;;;;;;;28.10;14.57;;;;;;;;;;4776229;29;179198;-69
2021/01/24 05:52:38;;;;;;;18.13;12.70;;;;;;;;;;4775021;29;179222;-69
2021/01/24 05:55:06;;;;;;;25.37;13.53;;;;;;;;;;4776887;29;177897;-69
2021/01/24 05:57:36;;;;;;;23.17;13.67;;;;;;;;;;4769267;28;178775;-69
2021/01/24 06:00:06;;;;;;;22.93;13.07;;;;;;;;;;4769538;29;180531;-69
2021/01/24 06:02:33;;;;;;;17.73;11.87;;;;;;;;;;4774869;29;179028;-69
2021/01/24 06:05:00;;;;;;;26.07;14.50;;;;;;;;;;4776008;29;178277;-69
2021/01/24 06:07:26;;;;;;;18.10;12.23;;;;;;;;;;4776864;29;177995;-69
2021/01/24 06:09:53;;;;;;;17.90;13.03;;;;;;;;;;4774701;29;182386;-69
2021/01/24 06:12:22;;;;;;;22.70;13.27;;;;;;;;;;4776739;29;181809;-69
2021/01/24 06:14:50;;;;;;;18.63;12.37;;;;;;;;;;4776119;29;177878;-69
2021/01/24 06:17:30;;;;;;;20.23;13.43;;;;;;;;;;4775409;29;178535;-69
2021/01/24 06:20:01;;;;;;;27.53;13.87;;;;;;;;;;4775979;29;179779;-69
2021/01/24 06:22:32;;;;;;;19.40;12.30;;;;;;;;;;4772904;29;178013;-69
2021/01/24 06:25:02;;;;;;;19.60;13.30;;;;;;;;;;4777159;29;177917;-69
2021/01/24 06:27:37;;;;;;;18.77;12.07;;;;;;;;;;4775673;29;176908;-69
2021/01/24 06:30:09;;;;;;;20.20;12.43;;;;;;;;;;4760184;29;181226;-69
2021/01/24 06:32:36;;;;;;;17.17;11.57;;;;;;;;;;4774986;29;179496;-69
2021/01/24 06:35:16;;;;;;;26.60;14.60;;;;;;;;;;4768860;29;183615;-69
2021/01/24 06:37:59;;;;;;;18.17;12.13;;;;;;;;;;4774770;29;179872;-69
2021/01/24 06:40:27;;;;;;;22.13;13.17;;;;;;;;;;4774998;29;179151;-69
2021/01/24 06:42:55;;;;;;;22.43;12.47;;;;;;;;;;4775529;29;178931;-69
2021/01/24 06:45:22;;;;;;;20.63;12.30;;;;;;;;;;4776673;29;178419;-69
2021/01/24 06:47:49;;;;;;;23.73;12.60;;;;;;;;;;4773650;29;178175;-69
2021/01/24 06:50:35;;;;;;;20.17;12.70;;;;;;;;;;4776305;29;179176;-69
2021/01/24 06:53:03;;;;;;;31.00;13.77;;;;;;;;;;4775252;29;177625;-69
2021/01/24 06:55:29;;;;;;;19.10;12.80;;;;;;;;;;4769492;29;177889;-69
2021/01/24 06:57:56;;;;;;;29.07;13.27;;;;;;;;;;4775865;29;178109;-69
2021/01/24 07:00:23;;;;;;;28.77;13.23;;;;;;;;;;4774531;29;182520;-69
2021/01/24 07:02:50;;;;;;;22.17;12.10;;;;;;;;;;4772996;29;181499;-69
2021/01/24 07:05:23;;;;;;;15.77;9.33;;;;;;;;;;4775264;29;178439;-69
2021/01/24 07:07:53;;;;;;;23.27;11.87;;;;;;;;;;4776698;29;178246;-69
2021/01/24 07:10:38;;;;;;;60.40;15.47;;;;;;;;;;4776476;29;179125;-70
2021/01/24 07:13:30;;;;;;;18.80;11.67;;;;;;;;;;4773280;29;180706;-69
2021/01/24 07:16:01;;;;;;;23.57;12.17;;;;;;;;;;4759643;29;179114;-69
2021/01/24 07:18:38;;;;;;;17.30;12.37;;;;;;;;;;4775420;29;177149;-69
2021/01/24 07:21:05;;;;;;;56.17;15.13;;;;;;;;;;4775382;29;179963;-69
2021/01/24 07:23:32;;;;;;;50.17;13.83;;;;;;;;;;4775173;29;178656;-69
2021/01/24 07:26:02;;;;;;;53.93;14.60;;;;;;;;;;4773416;29;182449;-69
2021/01/24 07:28:29;;;;;;;30.73;13.10;;;;;;;;;;4773621;29;178203;-70
2021/01/24 07:31:03;;;;;;;18.33;11.53;;;;;;;;;;4775239;29;180362;-70
2021/01/24 07:33:31;;;;;;;20.77;14.77;;;;;;;;;;4759425;29;178292;-70
2021/01/24 07:35:58;;;;;;;57.43;15.77;;;;;;;;;;4772141;29;178830;-69
2021/01/24 07:38:26;;;;;;;42.97;14.20;;;;;;;;;;4775721;29;177952;-69
2021/01/24 07:40:54;;;;;;;83.93;18.77;;;;;;;;;;4774195;29;179291;-69
2021/01/24 07:43:21;;;;;;;23.50;13.13;;;;;;;;;;4775626;29;178324;-69
2021/01/24 07:45:47;;;;;;;28.13;13.53;;;;;;;;;;4773097;29;178817;-69
2021/01/24 07:48:15;;;;;;;37.60;15.23;;;;;;;;;;4775083;29;178504;-69
2021/01/24 07:50:42;;;;;;;47.23;14.27;;;;;;;;;;4765339;29;182404;-69
2021/01/24 07:53:09;;;;;;;75.83;18.80;;;;;;;;;;4757618;29;182472;-69
2021/01/24 07:55:37;;;;;;;25.73;13.77;;;;;;;;;;4765229;29;179509;-69
2021/01/24 07:58:04;;;;;;;25.97;13.80;;;;;;;;;;4774490;29;178778;-69
2021/01/24 08:00:33;;;;;;;22.00;12.77;;;;;;;;;;4758008;29;178751;-69
2021/01/24 08:03:00;;;;;;;29.03;14.33;;;;;;;;;;4757719;29;179542;-69
2021/01/24 08:05:34;;;;;;;21.23;12.23;;;;;;;;;;4775556;29;177983;-69
2021/01/24 08:08:01;;;;;;;29.93;13.13;;;;;;;;;;4775026;29;177198;-69
2021/01/24 08:10:34;;;;;;;21.53;12.07;;;;;;;;;;4770143;29;179497;-70
2021/01/24 08:13:07;;;;;;;45.33;14.27;;;;;;;;;;4775073;29;178600;-70
2021/01/24 08:15:34;;;;;;;44.80;16.17;;;;;;;;;;4769863;29;181467;-70
2021/01/24 08:18:02;;;;;;;19.90;12.27;;;;;;;;;;4773045;29;178461;-70
2021/01/24 08:20:40;;;;;;;64.43;15.53;;;;;;;;;;4766168;28;182765;-70
2021/01/24 08:23:07;;;;;;;31.60;12.97;;;;;;;;;;4773962;29;179228;-70
2021/01/24 08:25:35;;;;;;;17.70;11.07;;;;;;;;;;4777915;29;177915;-70
2021/01/24 08:28:02;;;;;;;47.23;16.97;;;;;;;;;;4778287;29;178020;-70
2021/01/24 08:30:29;;;;;;;21.33;12.07;;;;;;;;;;4778233;29;179294;-70
2021/01/24 08:32:56;;;;;;;29.50;14.20;;;;;;;;;;4777710;29;177734;-70
2021/01/24 08:35:24;;;;;;;22.33;14.13;;;;;;;;;;4777464;29;179044;-70
2021/01/24 08:37:50;;;;;;;37.10;16.60;;;;;;;;;;4769225;29;179259;-70
2021/01/24 08:40:20;;;;;;;20.60;13.87;;;;;;;;;;4776451;29;183048;-70
2021/01/24 08:42:50;;;;;;;19.07;13.27;;;;;;;;;;4774500;28;180305;-70
2021/01/24 08:45:25;;;;;;;36.67;14.87;;;;;;;;;;4775745;29;180139;-71
2021/01/24 08:48:02;;;;;;;40.13;15.27;;;;;;;;;;4761911;29;177971;-71
2021/01/24 08:50:33;;;;;;;19.07;12.80;;;;;;;;;;4776979;29;179656;-71
2021/01/24 08:53:00;;;;;;;32.13;14.97;;;;;;;;;;4776512;29;179597;-71
2021/01/24 08:55:27;;;;;;;28.87;14.00;;;;;;;;;;4777804;29;178013;-71
2021/01/24 08:57:54;;;;;;;74.47;16.83;;;;;;;;;;4777708;28;176519;-71
2021/01/24 09:00:21;;;;;;;37.70;13.83;;;;;;;;;;4776140;29;179901;-71
2021/01/24 09:02:49;;;;;;;27.40;13.10;;;;;;;;;;4777076;29;178462;-71
2021/01/24 09:05:30;;;;;;;29.50;13.23;;;;;;;;;;4771967;29;181287;-71
2021/01/24 09:07:57;;;;;;;23.67;11.90;;;;;;;;;;4776587;29;178122;-71
2021/01/24 09:10:28;;;;;;;24.53;12.33;;;;;;;;;;4776133;29;180164;-71
2021/01/24 09:12:55;;;;;;;28.13;13.37;;;;;;;;;;4782890;28;178983;-72
2021/01/24 09:15:23;;;;;;;36.00;12.97;;;;;;;;;;4795576;28;178047;-72
2021/01/24 09:17:50;;;;;;;23.87;12.27;;;;;;;;;;4784893;28;178081;-72
2021/01/24 09:20:18;;;;;;;18.37;11.70;;;;;;;;;;4777896;29;178822;-72
2021/01/24 09:22:44;;;;;;;23.97;12.20;;;;;;;;;;4777975;29;177739;-72
2021/01/24 09:25:11;;;;;;;19.80;9.83;;;;;;;;;;4778751;29;177943;-73
2021/01/24 09:27:38;;;;;;;18.50;10.77;;;;;;;;;;4770469;29;178288;-73
2021/01/24 09:30:06;;;;;;;50.80;15.17;;;;;;;;;;4774484;29;182598;-73
2021/01/24 09:32:32;;;;;;;56.97;14.70;;;;;;;;;;4773115;29;180441;-73
2021/01/24 09:34:59;;;;;;;38.37;12.77;;;;;;;;;;4771667;28;179494;-73
2021/01/24 09:37:27;;;;;;;37.87;13.10;;;;;;;;;;4774370;29;178044;-73
2021/01/24 09:39:53;;;;;;;37.23;13.37;;;;;;;;;;4772181;29;179716;-73
2021/01/24 09:42:20;;;;;;;34.07;12.80;;;;;;;;;;4772682;28;179587;-73
2021/01/24 09:44:47;;;;;;;37.53;13.63;;;;;;;;;;4757192;29;177994;-73
2021/01/24 09:47:15;;;;;;;44.63;13.97;;;;;;;;;;4760342;29;177302;-73
2021/01/24 09:49:42;;;;;;;30.27;14.00;;;;;;;;;;4774178;29;179864;-71
2021/01/24 09:52:08;;;;;;;22.40;12.00;;;;;;;;;;4773916;29;179505;-72
2021/01/24 09:54:35;;;;;;;14.53;10.53;;;;;;;;;;4771498;29;181455;-74
2021/01/24 09:57:01;;;;;;;18.17;10.97;;;;;;;;;;4771888;29;178532;-73
2021/01/24 09:59:28;;;;;;;24.93;11.13;;;;;;;;;;4774648;29;182518;-74
2021/01/24 10:01:55;;;;;;;23.37;11.20;;;;;;;;;;4768760;29;178318;-73
2021/01/24 10:04:22;;;;;;;22.63;11.93;;;;;;;;;;4769525;29;178646;-74
2021/01/24 10:06:48;;;;;;;22.27;11.73;;;;;;;;;;4771701;29;178059;-73
2021/01/24 10:09:15;;;;;;;17.93;10.80;;;;;;;;;;4774670;29;178167;-73
2021/01/24 10:11:43;;;;;;;30.03;12.03;;;;;;;;;;4759047;29;179565;-73
2021/01/24 10:14:09;;;;;;;19.93;10.10;;;;;;;;;;4772116;29;178961;-74
2021/01/24 10:16:36;;;;;;;21.20;11.67;;;;;;;;;;4775424;29;178512;-73
2021/01/24 10:19:03;;;;;;;19.47;11.40;;;;;;;;;;4766301;29;183205;-73
2021/01/24 10:21:30;;;;;;;15.83;9.20;;;;;;;;;;4768281;29;181878;-74
2021/01/24 10:23:56;;;;;;;20.80;10.83;;;;;;;;;;4765692;29;177917;-74
2021/01/24 10:26:23;;;;;;;20.60;10.23;;;;;;;;;;4769573;29;178772;-74
2021/01/24 10:28:49;;;;;;;16.13;10.00;;;;;;;;;;4773726;29;179199;-74
2021/01/24 10:31:16;;;;;;;14.27;9.90;;;;;;;;;;4772544;29;178419;-74
2021/01/24 10:33:45;;;;;;;17.00;10.53;;;;;;;;;;4751121;29;178867;-73
2021/01/24 10:36:11;;;;;;;13.33;9.67;;;;;;;;;;4773244;29;176493;-74
2021/01/24 10:38:39;;;;;;;19.90;11.80;;;;;;;;;;4772003;29;179126;-74
2021/01/24 10:41:06;;;;;;;13.37;10.03;;;;;;;;;;4756997;29;178385;-73
2021/01/24 10:43:32;;;;;;;20.00;10.63;;;;;;;;;;4755603;29;181307;-73
2021/01/24 10:45:59;;;;;;;16.40;10.40;;;;;;;;;;4759141;29;177981;-74
2021/01/24 10:48:26;;;;;;;21.83;11.23;;;;;;;;;;4758247;29;178977;-74
2021/01/24 10:50:53;;;;;;;36.47;12.67;;;;;;;;;;4758643;29;178699;-73
2021/01/24 10:53:20;;;;;;;27.30;12.20;;;;;;;;;;4758932;29;177984;-74
2021/01/24 10:55:47;;;;;;;26.47;12.03;;;;;;;;;;4758899;29;178441;-75
2021/01/24 10:58:14;;;;;;;28.43;11.10;;;;;;;;;;4759410;29;181129;-74
2021/01/24 11:00:41;;;;;;;15.43;10.73;;;;;;;;;;4777261;29;178429;-75
2021/01/24 11:03:07;;;;;;;16.83;11.30;;;;;;;;;;4776943;29;177878;-73
2021/01/24 11:05:34;;;;;;;20.13;12.80;;;;;;;;;;4777362;29;177946;-74
2021/01/24 11:08:01;;;;;;;21.10;12.40;;;;;;;;;;4775311;29;183171;-74
2021/01/24 11:10:27;;;;;;;18.73;10.73;;;;;;;;;;4776347;29;180982;-75
2021/01/24 11:12:54;;;;;;;15.80;10.57;;;;;;;;;;4776953;29;177910;-74
2021/01/24 11:15:21;;;;;;;19.40;11.90;;;;;;;;;;4777054;29;178825;-74
2021/01/24 11:17:48;;;;;;;18.30;10.93;;;;;;;;;;4776705;29;179757;-75
2021/01/24 11:20:23;;;;;;;22.57;11.27;;;;;;;;;;4776819;29;178143;-74
2021/01/24 11:22:50;;;;;;;15.17;10.43;;;;;;;;;;4776345;29;178861;-74
2021/01/24 11:25:17;;;;;;;20.80;11.47;;;;;;;;;;4777234;29;176642;-74
2021/01/24 11:27:43;;;;;;;14.87;9.67;;;;;;;;;;4776297;29;178634;-74
2021/01/24 11:30:11;;;;;;;15.40;9.83;;;;;;;;;;4760489;29;181621;-73
2021/01/24 11:32:38;;;;;;;17.57;11.33;;;;;;;;;;4776171;29;181208;-75
2021/01/24 11:35:09;;;;;;;15.33;9.90;;;;;;;;;;4776058;29;178152;-75
2021/01/24 11:37:36;;;;;;;12.73;8.70;;;;;;;;;;4777065;29;180121;-74
2021/01/24 11:40:04;;;;;;;11.73;9.03;;;;;;;;;;4777220;29;177849;-74
2021/01/24 11:42:31;;;;;;;12.43;8.40;;;;;;;;;;4777693;29;179164;-74
2021/01/24 11:44:58;;;;;;;14.60;9.23;;;;;;;;;;4777407;29;178025;-74
2021/01/24 11:47:26;;;;;;;15.33;10.13;;;;;;;;;;4777438;29;179243;-74
2021/01/24 11:49:53;;;;;;;18.20;10.67;;;;;;;;;;4776693;29;179737;-74
2021/01/24 11:52:20;;;;;;;15.37;10.33;;;;;;;;;;4775939;29;177892;-74
2021/01/24 11:54:46;;;;;;;14.93;9.13;;;;;;;;;;4759138;29;178557;-66
2021/01/24 11:57:13;;;;;;;19.47;9.57;;;;;;;;;;4771877;29;184229;-73
2021/01/24 11:59:41;;;;;;;16.63;9.37;;;;;;;;;;4763617;28;185401;-73
2021/01/24 12:02:08;;;;;;;24.03;10.43;;;;;;;;;;4774234;28;178318;-73
2021/01/24 12:04:35;;;;;;;20.70;9.87;;;;;;;;;;4775458;29;177925;-73
2021/01/24 12:07:02;;;;;;;16.80;9.20;;;;;;;;;;4770999;29;179248;-73
2021/01/24 12:09:29;;;;;;;16.57;9.00;;;;;;;;;;4773934;29;178013;-73
2021/01/24 12:11:56;;;;;;;15.93;8.97;;;;;;;;;;4772753;29;178217;-73
2021/01/24 12:14:22;;;;;;;17.57;9.23;;;;;;;;;;4772165;29;176897;-73
2021/01/24 12:16:49;;;;;;;11.27;8.07;;;;;;;;;;4778045;28;178803;-73
2021/01/24 12:19:16;;;;;;;10.60;7.90;;;;;;;;;;4773964;29;179418;-73
2021/01/24 12:21:42;;;;;;;11.90;8.33;;;;;;;;;;4771234;29;182042;-73
2021/01/24 12:24:09;;;;;;;16.07;8.63;;;;;;;;;;4774809;29;178428;-73
2021/01/24 12:26:36;;;;;;;19.67;9.90;;;;;;;;;;4773863;29;180168;-73
2021/01/24 12:29:03;;;;;;;22.87;9.90;;;;;;;;;;4774058;29;177944;-74
2021/01/24 12:31:31;;;;;;;20.27;8.83;;;;;;;;;;4773381;29;178453;-73
2021/01/24 12:33:59;;;;;;;15.90;8.83;;;;;;;;;;4780570;28;179232;-73
2021/01/24 12:36:25;;;;;;;12.97;9.23;;;;;;;;;;4792896;28;180061;-73
2021/01/24 12:38:52;;;;;;;14.40;8.43;;;;;;;;;;4773683;28;179289;-73
2021/01/24 12:41:19;;;;;;;15.57;9.93;;;;;;;;;;4773903;29;177997;-73
2021/01/24 12:43:46;;;;;;;11.93;8.37;;;;;;;;;;4757685;29;178044;-73
2021/01/24 12:46:12;;;;;;;16.77;8.70;;;;;;;;;;4754080;29;182875;-73
2021/01/24 12:48:39;;;;;;;14.70;8.90;;;;;;;;;;4756642;29;181134;-73
2021/01/24 12:51:06;;;;;;;16.50;8.77;;;;;;;;;;4755823;29;177846;-73
2021/01/24 12:53:40;;;;;;;19.00;8.27;;;;;;;;;;4766833;28;178627;-73
2021/01/24 12:56:06;;;;;;;18.77;8.40;;;;;;;;;;4773075;29;179406;-73
2021/01/24 12:58:33;;;;;;;17.30;9.07;;;;;;;;;;4764259;28;181688;-73
2021/01/24 13:01:00;;;;;;;26.70;9.33;;;;;;;;;;4793100;28;177841;-73
2021/01/24 13:03:27;;;;;;;21.53;8.57;;;;;;;;;;4766547;28;177322;-73
2021/01/24 13:05:53;;;;;;;26.27;9.87;;;;;;;;;;4755084;29;179440;-73
2021/01/24 13:08:21;;;;;;;19.20;8.77;;;;;;;;;;4740265;29;181485;-73
2021/01/24 13:10:48;;;;;;;19.27;9.50;;;;;;;;;;4738813;29;181471;-73
2021/01/24 13:13:15;;;;;;;21.47;9.07;;;;;;;;;;4758167;29;178176;-73
2021/01/24 13:15:42;;;;;;;14.93;8.00;;;;;;;;;;4758687;29;180994;-73
2021/01/24 13:18:09;;;;;;;17.67;7.90;;;;;;;;;;4758502;29;180189;-73
2021/01/24 13:20:36;;;;;;;23.07;9.07;;;;;;;;;;4759240;29;177970;-74
2021/01/24 13:23:03;;;;;;;14.93;8.40;;;;;;;;;;4758331;29;178513;-74
2021/01/24 13:25:30;;;;;;;18.53;8.50;;;;;;;;;;4776084;29;179400;-73
2021/01/24 13:27:56;;;;;;;19.97;8.47;;;;;;;;;;4768623;29;177743;-73
2021/01/24 13:30:23;;;;;;;15.17;7.60;;;;;;;;;;4758263;29;178924;-73
2021/01/24 13:32:50;;;;;;;17.33;7.97;;;;;;;;;;4758006;29;177966;-73
2021/01/24 13:35:17;;;;;;;18.93;8.53;;;;;;;;;;4756515;29;182523;-73
2021/01/24 13:37:44;;;;;;;16.40;7.90;;;;;;;;;;4763987;29;181586;-74
2021/01/24 13:40:11;;;;;;;14.63;8.30;;;;;;;;;;4777046;29;178413;-73
2021/01/24 13:42:38;;;;;;;20.47;8.43;;;;;;;;;;4776343;28;178099;-73
2021/01/24 13:45:05;;;;;;;14.87;7.73;;;;;;;;;;4760513;29;179635;-73
2021/01/24 13:47:33;;;;;;;14.37;7.77;;;;;;;;;;4777451;28;178421;-73
2021/01/24 13:49:59;;;;;;;16.00;8.27;;;;;;;;;;4752348;29;178258;-73
2021/01/24 13:52:26;;;;;;;15.33;7.57;;;;;;;;;;4773946;29;177215;-73
2021/01/24 13:54:53;;;;;;;15.00;7.57;;;;;;;;;;4775584;29;180527;-73
2021/01/24 13:57:19;;;;;;;12.87;7.53;;;;;;;;;;4770080;29;178388;-73
2021/01/24 13:59:46;;;;;;;13.27;6.93;;;;;;;;;;4768010;29;182977;-73
2021/01/24 14:02:13;;;;;;;20.70;7.60;;;;;;;;;;4774113;29;177917;-73
2021/01/24 14:04:40;;;;;;;17.97;8.10;;;;;;;;;;4777915;29;178828;-73
2021/01/24 14:07:07;;;;;;;16.93;8.03;;;;;;;;;;4777505;29;178045;-73
2021/01/24 14:09:33;;;;;;;13.00;6.80;;;;;;;;;;4779583;29;179517;-73
2021/01/24 14:12:00;;;;;;;16.00;8.17;;;;;;;;;;4777172;29;178126;-73